METAR Data
IDs: Format: Raw Decoded Include TAF

Data at: 1947 UTC 18 Apr 2021

TDCF 181900Z 14009G23KT 9999 SCT022 31/20 Q1014